sensor_id;sensor_type;location;lat;lon;timestamp;P1;durP1;ratioP1;P2;durP2;ratioP2
13872;SDS011;7006;51.494;11.964;2024-03-07T00:02:03;35.20;;;21.10;;
13872;SDS011;7006;51.494;11.964;2024-03-07T00:04:31;34.20;;;22.80;;
13872;SDS011;7006;51.494;11.964;2024-03-07T00:07:00;35.60;;;21.13;;
13872;SDS011;7006;51.494;11.964;2024-03-07T00:09:29;34.20;;;20.87;;
13872;SDS011;7006;51.494;11.964;2024-03-07T00:11:57;34.57;;;21.40;;
13872;SDS011;7006;51.494;11.964;2024-03-07T00:14:25;29.10;;;20.17;;
13872;SDS011;7006;51.494;11.964;2024-03-07T00:16:54;33.30;;;20.60;;
13872;SDS011;7006;51.494;11.964;2024-03-07T00:19:26;34.50;;;22.50;;
13872;SDS011;7006;51.494;11.964;2024-03-07T00:21:55;37.60;;;23.20;;
13872;SDS011;7006;51.494;11.964;2024-03-07T00:24:23;38.90;;;23.17;;
13872;SDS011;7006;51.494;11.964;2024-03-07T00:26:52;38.10;;;23.50;;
13872;SDS011;7006;51.494;11.964;2024-03-07T00:29:22;38.47;;;22.73;;
13872;SDS011;7006;51.494;11.964;2024-03-07T00:31:53;38.80;;;24.37;;
13872;SDS011;7006;51.494;11.964;2024-03-07T00:34:22;38.07;;;23.97;;
13872;SDS011;7006;51.494;11.964;2024-03-07T00:36:52;37.43;;;23.97;;
13872;SDS011;7006;51.494;11.964;2024-03-07T00:39:18;41.10;;;24.80;;
13872;SDS011;7006;51.494;11.964;2024-03-07T00:41:47;41.00;;;23.87;;
13872;SDS011;7006;51.494;11.964;2024-03-07T00:44:15;45.40;;;25.27;;
13872;SDS011;7006;51.494;11.964;2024-03-07T00:46:43;43.80;;;25.97;;
13872;SDS011;7006;51.494;11.964;2024-03-07T00:49:12;56.17;;;27.10;;
13872;SDS011;7006;51.494;11.964;2024-03-07T00:51:40;44.13;;;27.47;;
13872;SDS011;7006;51.494;11.964;2024-03-07T00:54:11;52.83;;;29.03;;
13872;SDS011;7006;51.494;11.964;2024-03-07T00:56:39;52.67;;;28.17;;
13872;SDS011;7006;51.494;11.964;2024-03-07T00:59:08;52.03;;;28.10;;
13872;SDS011;7006;51.494;11.964;2024-03-07T01:01:36;53.50;;;29.93;;
13872;SDS011;7006;51.494;11.964;2024-03-07T01:04:06;60.90;;;30.57;;
13872;SDS011;7006;51.494;11.964;2024-03-07T01:06:35;53.63;;;29.90;;
13872;SDS011;7006;51.494;11.964;2024-03-07T01:09:05;51.20;;;28.07;;
13872;SDS011;7006;51.494;11.964;2024-03-07T01:11:41;52.63;;;28.43;;
13872;SDS011;7006;51.494;11.964;2024-03-07T01:14:10;52.20;;;28.77;;
13872;SDS011;7006;51.494;11.964;2024-03-07T01:16:39;57.87;;;31.00;;
13872;SDS011;7006;51.494;11.964;2024-03-07T01:19:07;58.73;;;30.53;;
13872;SDS011;7006;51.494;11.964;2024-03-07T01:21:35;64.23;;;33.20;;
13872;SDS011;7006;51.494;11.964;2024-03-07T01:24:04;62.73;;;31.10;;
13872;SDS011;7006;51.494;11.964;2024-03-07T01:26:32;54.33;;;29.50;;
13872;SDS011;7006;51.494;11.964;2024-03-07T01:29:03;59.80;;;30.97;;
13872;SDS011;7006;51.494;11.964;2024-03-07T01:31:32;63.03;;;31.87;;
13872;SDS011;7006;51.494;11.964;2024-03-07T01:34:00;60.43;;;30.00;;
13872;SDS011;7006;51.494;11.964;2024-03-07T01:36:28;63.43;;;31.53;;
13872;SDS011;7006;51.494;11.964;2024-03-07T01:38:57;54.83;;;31.57;;
13872;SDS011;7006;51.494;11.964;2024-03-07T01:41:25;57.07;;;30.50;;
13872;SDS011;7006;51.494;11.964;2024-03-07T01:43:53;48.57;;;28.87;;
13872;SDS011;7006;51.494;11.964;2024-03-07T01:46:24;57.23;;;29.80;;
13872;SDS011;7006;51.494;11.964;2024-03-07T01:48:52;50.47;;;27.80;;
13872;SDS011;7006;51.494;11.964;2024-03-07T01:51:21;46.60;;;26.60;;
13872;SDS011;7006;51.494;11.964;2024-03-07T01:53:49;56.63;;;27.17;;
13872;SDS011;7006;51.494;11.964;2024-03-07T01:56:18;48.53;;;26.33;;
13872;SDS011;7006;51.494;11.964;2024-03-07T01:58:46;39.17;;;23.90;;
13872;SDS011;7006;51.494;11.964;2024-03-07T02:01:17;48.10;;;26.93;;
13872;SDS011;7006;51.494;11.964;2024-03-07T02:03:48;46.70;;;27.20;;
13872;SDS011;7006;51.494;11.964;2024-03-07T02:06:17;46.20;;;26.23;;
13872;SDS011;7006;51.494;11.964;2024-03-07T02:08:45;43.60;;;25.53;;
13872;SDS011;7006;51.494;11.964;2024-03-07T02:11:13;45.70;;;25.77;;
13872;SDS011;7006;51.494;11.964;2024-03-07T02:13:41;45.07;;;26.80;;
13872;SDS011;7006;51.494;11.964;2024-03-07T02:16:10;43.60;;;26.83;;
13872;SDS011;7006;51.494;11.964;2024-03-07T02:18:38;48.57;;;26.60;;
13872;SDS011;7006;51.494;11.964;2024-03-07T02:21:09;43.77;;;25.97;;
13872;SDS011;7006;51.494;11.964;2024-03-07T02:23:37;46.17;;;26.10;;
13872;SDS011;7006;51.494;11.964;2024-03-07T02:26:06;42.30;;;26.53;;
13872;SDS011;7006;51.494;11.964;2024-03-07T02:28:34;44.57;;;26.23;;
13872;SDS011;7006;51.494;11.964;2024-03-07T02:31:02;41.00;;;26.67;;
13872;SDS011;7006;51.494;11.964;2024-03-07T02:33:31;47.17;;;26.53;;
13872;SDS011;7006;51.494;11.964;2024-03-07T02:35:59;42.07;;;26.87;;
13872;SDS011;7006;51.494;11.964;2024-03-07T02:38:31;43.67;;;27.57;;
13872;SDS011;7006;51.494;11.964;2024-03-07T02:40:59;45.10;;;26.90;;
13872;SDS011;7006;51.494;11.964;2024-03-07T02:43:27;52.20;;;29.97;;
13872;SDS011;7006;51.494;11.964;2024-03-07T02:45:56;52.00;;;30.33;;
13872;SDS011;7006;51.494;11.964;2024-03-07T02:48:24;50.40;;;29.60;;
13872;SDS011;7006;51.494;11.964;2024-03-07T02:50:52;49.03;;;28.97;;
13872;SDS011;7006;51.494;11.964;2024-03-07T02:53:20;48.13;;;29.67;;
13872;SDS011;7006;51.494;11.964;2024-03-07T02:55:51;50.20;;;28.03;;
13872;SDS011;7006;51.494;11.964;2024-03-07T02:58:19;56.77;;;30.57;;
13872;SDS011;7006;51.494;11.964;2024-03-07T03:00:47;50.73;;;28.00;;
13872;SDS011;7006;51.494;11.964;2024-03-07T03:03:16;50.67;;;29.20;;
13872;SDS011;7006;51.494;11.964;2024-03-07T03:05:44;52.10;;;29.70;;
13872;SDS011;7006;51.494;11.964;2024-03-07T03:08:12;53.43;;;31.47;;
13872;SDS011;7006;51.494;11.964;2024-03-07T03:10:40;55.47;;;30.70;;
13872;SDS011;7006;51.494;11.964;2024-03-07T03:13:11;56.20;;;31.90;;
13872;SDS011;7006;51.494;11.964;2024-03-07T03:15:40;54.17;;;30.47;;
13872;SDS011;7006;51.494;11.964;2024-03-07T03:18:09;49.97;;;29.10;;
13872;SDS011;7006;51.494;11.964;2024-03-07T03:20:37;52.40;;;30.47;;
13872;SDS011;7006;51.494;11.964;2024-03-07T03:23:08;56.63;;;33.63;;
13872;SDS011;7006;51.494;11.964;2024-03-07T03:25:38;56.07;;;32.40;;
13872;SDS011;7006;51.494;11.964;2024-03-07T03:28:07;52.47;;;30.37;;
13872;SDS011;7006;51.494;11.964;2024-03-07T03:30:39;57.30;;;29.27;;
13872;SDS011;7006;51.494;11.964;2024-03-07T03:33:08;53.17;;;30.03;;
13872;SDS011;7006;51.494;11.964;2024-03-07T03:35:37;52.20;;;30.20;;
13872;SDS011;7006;51.494;11.964;2024-03-07T03:38:05;49.70;;;31.60;;
13872;SDS011;7006;51.494;11.964;2024-03-07T03:40:34;54.17;;;31.00;;
13872;SDS011;7006;51.494;11.964;2024-03-07T03:43:02;50.43;;;29.33;;
13872;SDS011;7006;51.494;11.964;2024-03-07T03:45:31;53.37;;;30.90;;
13872;SDS011;7006;51.494;11.964;2024-03-07T03:48:02;56.50;;;32.20;;
13872;SDS011;7006;51.494;11.964;2024-03-07T03:50:31;55.20;;;30.53;;
13872;SDS011;7006;51.494;11.964;2024-03-07T03:52:59;55.90;;;31.10;;
13872;SDS011;7006;51.494;11.964;2024-03-07T03:55:29;53.10;;;31.20;;
13872;SDS011;7006;51.494;11.964;2024-03-07T03:57:57;57.53;;;31.73;;
13872;SDS011;7006;51.494;11.964;2024-03-07T04:00:26;51.87;;;30.80;;
13872;SDS011;7006;51.494;11.964;2024-03-07T04:02:54;58.77;;;31.80;;
13872;SDS011;7006;51.494;11.964;2024-03-07T04:05:25;49.07;;;30.47;;
13872;SDS011;7006;51.494;11.964;2024-03-07T04:07:53;63.37;;;31.77;;
13872;SDS011;7006;51.494;11.964;2024-03-07T04:10:22;58.43;;;31.20;;
13872;SDS011;7006;51.494;11.964;2024-03-07T04:12:50;60.43;;;32.70;;
13872;SDS011;7006;51.494;11.964;2024-03-07T04:15:18;60.60;;;32.70;;
13872;SDS011;7006;51.494;11.964;2024-03-07T04:17:47;61.53;;;33.80;;
13872;SDS011;7006;51.494;11.964;2024-03-07T04:20:16;53.73;;;32.03;;
13872;SDS011;7006;51.494;11.964;2024-03-07T04:22:47;63.70;;;33.27;;
13872;SDS011;7006;51.494;11.964;2024-03-07T04:25:16;60.73;;;33.47;;
13872;SDS011;7006;51.494;11.964;2024-03-07T04:27:44;66.30;;;33.70;;
13872;SDS011;7006;51.494;11.964;2024-03-07T04:30:14;64.60;;;34.10;;
13872;SDS011;7006;51.494;11.964;2024-03-07T04:32:43;79.77;;;38.07;;
13872;SDS011;7006;51.494;11.964;2024-03-07T04:35:11;72.10;;;36.80;;
13872;SDS011;7006;51.494;11.964;2024-03-07T04:37:39;77.57;;;37.97;;
13872;SDS011;7006;51.494;11.964;2024-03-07T04:40:10;82.13;;;36.83;;
13872;SDS011;7006;51.494;11.964;2024-03-07T04:42:43;74.10;;;37.37;;
13872;SDS011;7006;51.494;11.964;2024-03-07T04:45:13;77.50;;;39.90;;
13872;SDS011;7006;51.494;11.964;2024-03-07T04:47:42;81.50;;;39.17;;
13872;SDS011;7006;51.494;11.964;2024-03-07T04:50:11;87.13;;;39.67;;
13872;SDS011;7006;51.494;11.964;2024-03-07T04:52:42;88.23;;;43.23;;
13872;SDS011;7006;51.494;11.964;2024-03-07T04:55:13;99.80;;;47.50;;
13872;SDS011;7006;51.494;11.964;2024-03-07T04:57:41;90.60;;;43.70;;
13872;SDS011;7006;51.494;11.964;2024-03-07T05:00:10;93.83;;;41.77;;
13872;SDS011;7006;51.494;11.964;2024-03-07T05:02:44;94.40;;;43.43;;
13872;SDS011;7006;51.494;11.964;2024-03-07T05:05:13;94.97;;;45.20;;
13872;SDS011;7006;51.494;11.964;2024-03-07T05:07:47;86.07;;;43.50;;
13872;SDS011;7006;51.494;11.964;2024-03-07T05:10:18;97.20;;;45.17;;
13872;SDS011;7006;51.494;11.964;2024-03-07T05:12:46;108.17;;;48.87;;
13872;SDS011;7006;51.494;11.964;2024-03-07T05:15:14;95.17;;;44.80;;
13872;SDS011;7006;51.494;11.964;2024-03-07T05:17:43;90.53;;;43.67;;
13872;SDS011;7006;51.494;11.964;2024-03-07T05:20:11;88.77;;;44.10;;
13872;SDS011;7006;51.494;11.964;2024-03-07T05:22:40;87.13;;;44.47;;
13872;SDS011;7006;51.494;11.964;2024-03-07T05:25:09;95.03;;;43.43;;
13872;SDS011;7006;51.494;11.964;2024-03-07T05:27:40;102.47;;;47.87;;
13872;SDS011;7006;51.494;11.964;2024-03-07T05:30:10;81.87;;;43.73;;
13872;SDS011;7006;51.494;11.964;2024-03-07T05:32:40;83.40;;;42.73;;
13872;SDS011;7006;51.494;11.964;2024-03-07T05:35:08;84.63;;;41.07;;
13872;SDS011;7006;51.494;11.964;2024-03-07T05:37:37;83.40;;;42.47;;
13872;SDS011;7006;51.494;11.964;2024-03-07T05:40:07;80.50;;;39.47;;
13872;SDS011;7006;51.494;11.964;2024-03-07T05:42:36;73.97;;;40.97;;
13872;SDS011;7006;51.494;11.964;2024-03-07T05:45:07;82.97;;;41.70;;
13872;SDS011;7006;51.494;11.964;2024-03-07T05:47:36;81.97;;;41.77;;
13872;SDS011;7006;51.494;11.964;2024-03-07T05:50:05;71.10;;;37.83;;
13872;SDS011;7006;51.494;11.964;2024-03-07T05:52:35;67.10;;;38.03;;
13872;SDS011;7006;51.494;11.964;2024-03-07T05:55:04;70.77;;;38.17;;
13872;SDS011;7006;51.494;11.964;2024-03-07T05:57:33;73.60;;;38.77;;
13872;SDS011;7006;51.494;11.964;2024-03-07T06:00:02;69.57;;;38.13;;
13872;SDS011;7006;51.494;11.964;2024-03-07T06:02:37;72.77;;;37.40;;
13872;SDS011;7006;51.494;11.964;2024-03-07T06:05:07;76.83;;;39.00;;
13872;SDS011;7006;51.494;11.964;2024-03-07T06:07:40;62.63;;;37.37;;
13872;SDS011;7006;51.494;11.964;2024-03-07T06:10:10;71.47;;;38.57;;
13872;SDS011;7006;51.494;11.964;2024-03-07T06:12:41;68.30;;;37.60;;
13872;SDS011;7006;51.494;11.964;2024-03-07T06:15:11;87.50;;;39.40;;
13872;SDS011;7006;51.494;11.964;2024-03-07T06:17:42;73.40;;;38.23;;
13872;SDS011;7006;51.494;11.964;2024-03-07T06:20:11;95.83;;;37.87;;
13872;SDS011;7006;51.494;11.964;2024-03-07T06:22:47;75.87;;;38.97;;
13872;SDS011;7006;51.494;11.964;2024-03-07T06:25:16;65.77;;;39.80;;
13872;SDS011;7006;51.494;11.964;2024-03-07T06:27:45;73.43;;;39.70;;
13872;SDS011;7006;51.494;11.964;2024-03-07T06:30:14;70.90;;;38.67;;
13872;SDS011;7006;51.494;11.964;2024-03-07T06:32:46;73.00;;;37.57;;
13872;SDS011;7006;51.494;11.964;2024-03-07T06:35:14;72.13;;;38.20;;
13872;SDS011;7006;51.494;11.964;2024-03-07T06:37:45;69.90;;;37.37;;
13872;SDS011;7006;51.494;11.964;2024-03-07T06:40:13;60.73;;;35.70;;
13872;SDS011;7006;51.494;11.964;2024-03-07T06:42:46;59.70;;;33.63;;
13872;SDS011;7006;51.494;11.964;2024-03-07T06:45:15;62.00;;;34.43;;
13872;SDS011;7006;51.494;11.964;2024-03-07T06:47:46;63.70;;;34.87;;
13872;SDS011;7006;51.494;11.964;2024-03-07T06:50:15;54.13;;;34.33;;
13872;SDS011;7006;51.494;11.964;2024-03-07T06:52:44;56.00;;;33.93;;
13872;SDS011;7006;51.494;11.964;2024-03-07T06:55:13;55.50;;;34.03;;
13872;SDS011;7006;51.494;11.964;2024-03-07T06:57:42;71.17;;;35.50;;
13872;SDS011;7006;51.494;11.964;2024-03-07T07:00:11;54.60;;;33.60;;
13872;SDS011;7006;51.494;11.964;2024-03-07T07:02:42;57.60;;;34.87;;
13872;SDS011;7006;51.494;11.964;2024-03-07T07:05:14;57.23;;;33.07;;
13872;SDS011;7006;51.494;11.964;2024-03-07T07:07:43;54.90;;;32.53;;
13872;SDS011;7006;51.494;11.964;2024-03-07T07:10:12;52.97;;;33.60;;
13872;SDS011;7006;51.494;11.964;2024-03-07T07:12:44;55.13;;;32.90;;
13872;SDS011;7006;51.494;11.964;2024-03-07T07:15:13;55.90;;;33.43;;
13872;SDS011;7006;51.494;11.964;2024-03-07T07:17:43;55.87;;;33.30;;
13872;SDS011;7006;51.494;11.964;2024-03-07T07:20:16;55.50;;;33.33;;
13872;SDS011;7006;51.494;11.964;2024-03-07T07:22:43;50.80;;;31.70;;
13872;SDS011;7006;51.494;11.964;2024-03-07T07:25:12;53.70;;;30.73;;
13872;SDS011;7006;51.494;11.964;2024-03-07T07:27:41;54.03;;;31.27;;
13872;SDS011;7006;51.494;11.964;2024-03-07T07:30:11;57.63;;;33.17;;
13872;SDS011;7006;51.494;11.964;2024-03-07T07:32:40;49.97;;;31.73;;
13872;SDS011;7006;51.494;11.964;2024-03-07T07:35:10;50.33;;;31.00;;
13872;SDS011;7006;51.494;11.964;2024-03-07T07:37:43;51.83;;;30.87;;
13872;SDS011;7006;51.494;11.964;2024-03-07T07:40:13;50.40;;;30.60;;
13872;SDS011;7006;51.494;11.964;2024-03-07T07:42:43;46.83;;;29.57;;
13872;SDS011;7006;51.494;11.964;2024-03-07T07:45:12;40.73;;;28.50;;
13872;SDS011;7006;51.494;11.964;2024-03-07T07:47:41;40.40;;;26.60;;
13872;SDS011;7006;51.494;11.964;2024-03-07T07:50:11;38.73;;;25.83;;
13872;SDS011;7006;51.494;11.964;2024-03-07T07:52:45;36.80;;;24.87;;
13872;SDS011;7006;51.494;11.964;2024-03-07T07:55:15;36.90;;;24.83;;
13872;SDS011;7006;51.494;11.964;2024-03-07T07:57:44;37.40;;;25.90;;
13872;SDS011;7006;51.494;11.964;2024-03-07T08:00:14;33.17;;;24.50;;
13872;SDS011;7006;51.494;11.964;2024-03-07T08:02:47;34.20;;;23.50;;
13872;SDS011;7006;51.494;11.964;2024-03-07T08:05:19;32.03;;;22.70;;
13872;SDS011;7006;51.494;11.964;2024-03-07T08:07:50;29.47;;;20.77;;
13872;SDS011;7006;51.494;11.964;2024-03-07T08:10:19;23.77;;;16.80;;
13872;SDS011;7006;51.494;11.964;2024-03-07T08:12:48;26.30;;;17.77;;
13872;SDS011;7006;51.494;11.964;2024-03-07T08:15:17;22.70;;;16.27;;
13872;SDS011;7006;51.494;11.964;2024-03-07T08:17:46;20.47;;;14.70;;
13872;SDS011;7006;51.494;11.964;2024-03-07T08:20:17;21.63;;;14.57;;
13872;SDS011;7006;51.494;11.964;2024-03-07T08:22:47;18.90;;;14.13;;
13872;SDS011;7006;51.494;11.964;2024-03-07T08:25:20;22.03;;;15.20;;
13872;SDS011;7006;51.494;11.964;2024-03-07T08:27:51;20.43;;;14.67;;
13872;SDS011;7006;51.494;11.964;2024-03-07T08:30:19;20.60;;;15.27;;
13872;SDS011;7006;51.494;11.964;2024-03-07T08:32:49;18.90;;;14.47;;
13872;SDS011;7006;51.494;11.964;2024-03-07T08:35:18;21.33;;;14.87;;
13872;SDS011;7006;51.494;11.964;2024-03-07T08:37:47;20.60;;;15.60;;
13872;SDS011;7006;51.494;11.964;2024-03-07T08:40:20;22.83;;;16.53;;
13872;SDS011;7006;51.494;11.964;2024-03-07T08:42:51;18.93;;;14.00;;
13872;SDS011;7006;51.494;11.964;2024-03-07T08:45:20;23.63;;;15.60;;
13872;SDS011;7006;51.494;11.964;2024-03-07T08:47:49;18.20;;;14.80;;
13872;SDS011;7006;51.494;11.964;2024-03-07T08:50:19;18.70;;;13.83;;
13872;SDS011;7006;51.494;11.964;2024-03-07T08:52:48;19.60;;;15.40;;
13872;SDS011;7006;51.494;11.964;2024-03-07T08:55:18;20.73;;;15.73;;
13872;SDS011;7006;51.494;11.964;2024-03-07T08:57:50;18.60;;;14.87;;
13872;SDS011;7006;51.494;11.964;2024-03-07T09:00:18;18.83;;;15.07;;
13872;SDS011;7006;51.494;11.964;2024-03-07T09:02:50;20.17;;;14.83;;
13872;SDS011;7006;51.494;11.964;2024-03-07T09:05:20;18.70;;;13.67;;
13872;SDS011;7006;51.494;11.964;2024-03-07T09:07:50;17.87;;;14.43;;
13872;SDS011;7006;51.494;11.964;2024-03-07T09:10:18;18.90;;;13.70;;
13872;SDS011;7006;51.494;11.964;2024-03-07T09:12:50;20.90;;;14.23;;
13872;SDS011;7006;51.494;11.964;2024-03-07T09:15:19;21.83;;;14.60;;
13872;SDS011;7006;51.494;11.964;2024-03-07T09:17:48;20.10;;;14.27;;
13872;SDS011;7006;51.494;11.964;2024-03-07T09:20:18;19.00;;;15.00;;
13872;SDS011;7006;51.494;11.964;2024-03-07T09:22:46;21.63;;;14.30;;
13872;SDS011;7006;51.494;11.964;2024-03-07T09:25:16;18.90;;;13.97;;
13872;SDS011;7006;51.494;11.964;2024-03-07T09:27:47;16.97;;;14.10;;
13872;SDS011;7006;51.494;11.964;2024-03-07T09:30:15;19.93;;;15.27;;
13872;SDS011;7006;51.494;11.964;2024-03-07T09:32:49;19.00;;;14.60;;
13872;SDS011;7006;51.494;11.964;2024-03-07T09:35:20;20.67;;;13.53;;
13872;SDS011;7006;51.494;11.964;2024-03-07T09:37:48;18.93;;;14.13;;
13872;SDS011;7006;51.494;11.964;2024-03-07T09:40:16;20.53;;;13.57;;
13872;SDS011;7006;51.494;11.964;2024-03-07T09:42:52;18.83;;;14.03;;
13872;SDS011;7006;51.494;11.964;2024-03-07T09:45:21;16.80;;;12.80;;
13872;SDS011;7006;51.494;11.964;2024-03-07T09:47:50;18.43;;;13.67;;
13872;SDS011;7006;51.494;11.964;2024-03-07T09:50:20;18.10;;;13.60;;
13872;SDS011;7006;51.494;11.964;2024-03-07T09:52:49;20.27;;;14.23;;
13872;SDS011;7006;51.494;11.964;2024-03-07T09:55:18;20.27;;;13.67;;
13872;SDS011;7006;51.494;11.964;2024-03-07T09:57:51;19.67;;;14.23;;
13872;SDS011;7006;51.494;11.964;2024-03-07T10:00:21;18.03;;;13.87;;
13872;SDS011;7006;51.494;11.964;2024-03-07T10:02:53;18.17;;;13.17;;
13872;SDS011;7006;51.494;11.964;2024-03-07T10:05:23;19.77;;;13.90;;
13872;SDS011;7006;51.494;11.964;2024-03-07T10:07:54;19.33;;;13.77;;
13872;SDS011;7006;51.494;11.964;2024-03-07T10:10:23;17.10;;;12.50;;
13872;SDS011;7006;51.494;11.964;2024-03-07T10:12:54;18.10;;;13.70;;
13872;SDS011;7006;51.494;11.964;2024-03-07T10:15:26;17.30;;;13.83;;
13872;SDS011;7006;51.494;11.964;2024-03-07T10:17:56;17.20;;;12.90;;
13872;SDS011;7006;51.494;11.964;2024-03-07T10:20:25;17.17;;;13.80;;
13872;SDS011;7006;51.494;11.964;2024-03-07T10:22:53;21.40;;;13.67;;
13872;SDS011;7006;51.494;11.964;2024-03-07T10:25:22;18.27;;;14.43;;
13872;SDS011;7006;51.494;11.964;2024-03-07T10:27:55;15.73;;;12.83;;
13872;SDS011;7006;51.494;11.964;2024-03-07T10:30:23;16.93;;;12.87;;
13872;SDS011;7006;51.494;11.964;2024-03-07T10:32:53;17.70;;;13.20;;
13872;SDS011;7006;51.494;11.964;2024-03-07T10:35:28;17.60;;;15.00;;
13872;SDS011;7006;51.494;11.964;2024-03-07T10:37:56;16.83;;;13.70;;
13872;SDS011;7006;51.494;11.964;2024-03-07T10:40:25;22.13;;;15.00;;
13872;SDS011;7006;51.494;11.964;2024-03-07T10:42:58;19.63;;;14.80;;
13872;SDS011;7006;51.494;11.964;2024-03-07T10:45:28;20.83;;;15.30;;
13872;SDS011;7006;51.494;11.964;2024-03-07T10:47:57;20.53;;;15.30;;
13872;SDS011;7006;51.494;11.964;2024-03-07T10:50:30;19.10;;;14.33;;
13872;SDS011;7006;51.494;11.964;2024-03-07T10:53:10;17.47;;;13.67;;
13872;SDS011;7006;51.494;11.964;2024-03-07T10:55:59;19.73;;;14.93;;
13872;SDS011;7006;51.494;11.964;2024-03-07T10:58:41;15.57;;;12.70;;
13872;SDS011;7006;51.494;11.964;2024-03-07T11:01:13;16.00;;;12.80;;
13872;SDS011;7006;51.494;11.964;2024-03-07T11:03:43;16.37;;;13.17;;
13872;SDS011;7006;51.494;11.964;2024-03-07T11:06:12;15.80;;;12.83;;
13872;SDS011;7006;51.494;11.964;2024-03-07T11:08:41;16.50;;;13.10;;
13872;SDS011;7006;51.494;11.964;2024-03-07T11:11:10;17.77;;;12.40;;
13872;SDS011;7006;51.494;11.964;2024-03-07T11:13:41;13.53;;;11.33;;
13872;SDS011;7006;51.494;11.964;2024-03-07T11:16:10;15.43;;;12.17;;
13872;SDS011;7006;51.494;11.964;2024-03-07T11:18:39;17.73;;;13.00;;
13872;SDS011;7006;51.494;11.964;2024-03-07T11:21:08;20.50;;;13.53;;
13872;SDS011;7006;51.494;11.964;2024-03-07T11:24:09;20.93;;;14.40;;
13872;SDS011;7006;51.494;11.964;2024-03-07T11:26:37;18.93;;;14.33;;
13872;SDS011;7006;51.494;11.964;2024-03-07T11:32:08;19.50;;;15.20;;
13872;SDS011;7006;51.494;11.964;2024-03-07T11:34:39;20.90;;;17.10;;
13872;SDS011;7006;51.494;11.964;2024-03-07T11:37:16;23.03;;;16.80;;
13872;SDS011;7006;51.494;11.964;2024-03-07T11:39:48;21.63;;;17.67;;
13872;SDS011;7006;51.494;11.964;2024-03-07T11:42:24;19.30;;;16.90;;
13872;SDS011;7006;51.494;11.964;2024-03-07T11:44:54;19.80;;;16.93;;
13872;SDS011;7006;51.494;11.964;2024-03-07T11:47:26;24.13;;;18.97;;
13872;SDS011;7006;51.494;11.964;2024-03-07T11:50:03;21.80;;;16.83;;
13872;SDS011;7006;51.494;11.964;2024-03-07T11:52:36;19.53;;;15.13;;
13872;SDS011;7006;51.494;11.964;2024-03-07T11:55:07;21.57;;;16.50;;
13872;SDS011;7006;51.494;11.964;2024-03-07T11:57:36;21.83;;;15.57;;
13872;SDS011;7006;51.494;11.964;2024-03-07T12:00:06;22.57;;;17.70;;
13872;SDS011;7006;51.494;11.964;2024-03-07T12:02:39;22.60;;;16.87;;
13872;SDS011;7006;51.494;11.964;2024-03-07T12:05:08;25.80;;;16.93;;
13872;SDS011;7006;51.494;11.964;2024-03-07T12:07:41;20.90;;;17.33;;
13872;SDS011;7006;51.494;11.964;2024-03-07T12:10:09;19.83;;;15.50;;
13872;SDS011;7006;51.494;11.964;2024-03-07T12:12:37;23.40;;;18.60;;
13872;SDS011;7006;51.494;11.964;2024-03-07T12:15:07;34.23;;;25.93;;
13872;SDS011;7006;51.494;11.964;2024-03-07T12:17:47;23.43;;;19.27;;
13872;SDS011;7006;51.494;11.964;2024-03-07T12:20:16;32.53;;;20.43;;
13872;SDS011;7006;51.494;11.964;2024-03-07T12:22:56;23.73;;;16.40;;
13872;SDS011;7006;51.494;11.964;2024-03-07T12:25:26;19.93;;;16.80;;
13872;SDS011;7006;51.494;11.964;2024-03-07T12:28:01;23.93;;;17.90;;
13872;SDS011;7006;51.494;11.964;2024-03-07T12:30:31;24.30;;;18.47;;
13872;SDS011;7006;51.494;11.964;2024-03-07T12:33:06;21.20;;;16.87;;
13872;SDS011;7006;51.494;11.964;2024-03-07T12:35:35;25.10;;;18.30;;
13872;SDS011;7006;51.494;11.964;2024-03-07T12:38:03;23.60;;;18.53;;
13872;SDS011;7006;51.494;11.964;2024-03-07T12:40:32;25.73;;;17.60;;
13872;SDS011;7006;51.494;11.964;2024-03-07T12:43:02;23.00;;;19.00;;
13872;SDS011;7006;51.494;11.964;2024-03-07T12:45:33;22.50;;;16.83;;
13872;SDS011;7006;51.494;11.964;2024-03-07T12:48:01;23.27;;;17.77;;
13872;SDS011;7006;51.494;11.964;2024-03-07T12:50:32;23.80;;;17.20;;
13872;SDS011;7006;51.494;11.964;2024-03-07T12:53:02;21.93;;;17.73;;
13872;SDS011;7006;51.494;11.964;2024-03-07T12:55:31;25.50;;;17.47;;
13872;SDS011;7006;51.494;11.964;2024-03-07T12:58:00;22.87;;;17.47;;
13872;SDS011;7006;51.494;11.964;2024-03-07T13:00:29;22.50;;;16.30;;
13872;SDS011;7006;51.494;11.964;2024-03-07T13:02:55;26.33;;;18.50;;
13872;SDS011;7006;51.494;11.964;2024-03-07T13:05:24;24.03;;;17.80;;
13872;SDS011;7006;51.494;11.964;2024-03-07T13:07:55;25.03;;;17.97;;
13872;SDS011;7006;51.494;11.964;2024-03-07T13:10:23;22.90;;;16.70;;
13872;SDS011;7006;51.494;11.964;2024-03-07T13:12:51;20.67;;;17.40;;
13872;SDS011;7006;51.494;11.964;2024-03-07T13:15:20;19.77;;;16.63;;
13872;SDS011;7006;51.494;11.964;2024-03-07T13:17:50;23.03;;;18.13;;
13872;SDS011;7006;51.494;11.964;2024-03-07T13:20:20;24.03;;;18.63;;
13872;SDS011;7006;51.494;11.964;2024-03-07T13:22:51;21.93;;;17.33;;
13872;SDS011;7006;51.494;11.964;2024-03-07T13:25:24;25.93;;;17.17;;
13872;SDS011;7006;51.494;11.964;2024-03-07T13:27:56;24.30;;;17.57;;
13872;SDS011;7006;51.494;11.964;2024-03-07T13:30:25;23.30;;;17.97;;
13872;SDS011;7006;51.494;11.964;2024-03-07T13:32:55;24.73;;;17.00;;
13872;SDS011;7006;51.494;11.964;2024-03-07T13:35:23;22.53;;;18.33;;
13872;SDS011;7006;51.494;11.964;2024-03-07T13:37:52;24.20;;;16.53;;
13872;SDS011;7006;51.494;11.964;2024-03-07T13:40:22;24.50;;;17.70;;
13872;SDS011;7006;51.494;11.964;2024-03-07T13:42:53;21.93;;;16.40;;
13872;SDS011;7006;51.494;11.964;2024-03-07T13:45:23;22.60;;;16.27;;
13872;SDS011;7006;51.494;11.964;2024-03-07T13:47:52;21.77;;;16.03;;
13872;SDS011;7006;51.494;11.964;2024-03-07T13:50:24;20.73;;;15.83;;
13872;SDS011;7006;51.494;11.964;2024-03-07T13:52:54;22.83;;;16.30;;
13872;SDS011;7006;51.494;11.964;2024-03-07T13:55:46;19.07;;;14.40;;
13872;SDS011;7006;51.494;11.964;2024-03-07T13:58:26;23.90;;;15.30;;
13872;SDS011;7006;51.494;11.964;2024-03-07T14:01:08;18.57;;;14.77;;
13872;SDS011;7006;51.494;11.964;2024-03-07T14:03:55;20.17;;;14.97;;
13872;SDS011;7006;51.494;11.964;2024-03-07T14:06:42;17.03;;;14.17;;
13872;SDS011;7006;51.494;11.964;2024-03-07T14:09:24;19.53;;;15.30;;
13872;SDS011;7006;51.494;11.964;2024-03-07T14:12:12;19.97;;;16.50;;
13872;SDS011;7006;51.494;11.964;2024-03-07T14:14:55;21.60;;;15.73;;
13872;SDS011;7006;51.494;11.964;2024-03-07T14:20:47;22.20;;;15.93;;
13872;SDS011;7006;51.494;11.964;2024-03-07T14:23:25;20.23;;;16.17;;
13872;SDS011;7006;51.494;11.964;2024-03-07T14:26:09;20.50;;;15.77;;
13872;SDS011;7006;51.494;11.964;2024-03-07T14:29:09;22.30;;;15.57;;
13872;SDS011;7006;51.494;11.964;2024-03-07T14:31:43;18.67;;;14.70;;
13872;SDS011;7006;51.494;11.964;2024-03-07T14:34:16;19.73;;;15.23;;
13872;SDS011;7006;51.494;11.964;2024-03-07T14:36:49;18.57;;;14.67;;
13872;SDS011;7006;51.494;11.964;2024-03-07T14:39:22;21.40;;;16.00;;
13872;SDS011;7006;51.494;11.964;2024-03-07T14:41:52;21.63;;;16.33;;
13872;SDS011;7006;51.494;11.964;2024-03-07T14:44:24;23.37;;;15.77;;
13872;SDS011;7006;51.494;11.964;2024-03-07T14:46:55;20.30;;;14.90;;